KAUM/AUM METAR and TAF weather

Enter ICAO airport designator
Station Type Date Time Source
KAUM METAR 2020/10/20 17:15 UTC NOAA

KAUM 201715Z AUTO 14008KT 7SM -RA SCT016 OVC039 01/M01 A3015 RMK AO2


Station Type Date Time Source
KAUM Decoded METAR 2020/10/20 17:15 UTC NOAA

Austin Municipal, MN, United States (KAUM) 43-40N 092-56W
Oct 20, 2020 - 01:15 PM EDT / 2020.10.20 1715 UTC
Wind: from the SE (140 degrees) at 9 MPH (8 KT):0
Visibility: 7 mile(s):0
Sky conditions: overcast
Weather: light rain
Temperature: 33 F (1 C)
Windchill: 24 F (-4 C):1
Dew Point: 30 F (-1 C)
Relative Humidity: 86%
Pressure (altimeter): 30.15 in. Hg (1020 hPa)
ob: KAUM 201715Z AUTO 14008KT 7SM -RA SCT016 OVC039 01/M01 A3015 RMK AO2
cycle: 17

Station Type Date Time Source
KAUM TAF UTC NOAA

Error!

Example: see airport list